SIGN INREGISTER
/

Icon Brickell II

495 Brickell Av, Miami, FL 33131
Brickell
2009
550
60
1, 2 & 3 Bedrooms
732 - 1,870 SQ FT
58
25
Building Description

The ICON Brickell Tower 2 opened in 2010 and was developed by The Related Group and designed by Arquitectonica as one of the most luxurious waterfront condominiums in all of Miami. The ICON sits on 10 acres of prime bay-front property and features the largest pool and resort area in the city at 2.5 acres. Residences boast upscale finishes, large floor plans and stunning views of Biscayne Bay, South Beach and the skyline. Tower 2 is 57-stories with a 561 total units ranging from 726 to 3,000 square feet. Residences include junior 1-bedroom, 1-, 2- and 3-bedrooms and large penthouses.

Residences at the ICON Brickell Tower 2 boast beautiful Italian cabinetry and stone countertops with matching backsplashes, as well as high-end appliances, limestone flooring in the master bath with matching vanities, a walk-in limestone shower, an elongated water closet and Air Bubble jet system tubs in select units. Units also feature floor-to-ceiling windows with 9-foot ceilings, a stackable washer and dryer, a spacious glass rail terrace and a range of floor plans to choose from.

Amenities at ICON Brickell 2:

  • Contemporary architecture by Arquitechtonica with public areas designed by Yoo
  • Easter Island-inspired sculpture garden entryway
  • 28,000 square foot spa
  • 1,000 feet of waterfront property
  • Surrounded by landscaped parks
  • Smart Building technology in every residence to access building amenities and other services
  • Dock on Biscayne Bay
  • Full-service concierge with services like mail and package reception, housekeeping and laundry
  • 24-hour valet
  • Multi-level covered parking
  • Two-story entrance with valet drop-off
  • Two bayside restaurants
  • Wireless technology on sky terrace and common areas
  • 2-acre landscaped park terrace and pool deck with outdoor fireplace
Listings
Unit # Beds/Baths List Price Sq.Ft. M2 List Date Details
2702 2/2/0 $930,000.00 1,654 Sq.Ft. 154 09/17/2013 View Details
5010 2/2/0 $799,000.00 1,327 Sq.Ft. 124 10/28/2013 View Details
1001 3/2/0 $1,390,000.00 1,870 Sq.Ft. 174 11/06/2013 View Details
4204 2/2/0 $1,070,000.00 1,633 Sq.Ft. 152 11/08/2013 View Details
1606 1/1/0 $480,000.00 732 Sq.Ft. 69 12/16/2013 View Details
4501 3/2/0 $1,700,000.00 1,870 Sq.Ft. 174 12/17/2013 View Details
2508 1/1/0 $400,000.00 732 Sq.Ft. 69 01/06/2014 View Details
5408 1/1/0 $499,000.00 732 Sq.Ft. 69 01/09/2014 View Details
502 2/2/0 $720,000.00 1,505 Sq.Ft. 141 01/15/2014 View Details
2505 2/2/0 $839,000.00 1,450 Sq.Ft. 135 01/16/2014 View Details
5108 1/1/0 $440,000.00 732 Sq.Ft. 69 01/24/2014 View Details
5406 1/1/0 $475,000.00 732 Sq.Ft. 69 01/24/2014 View Details
2202 1/2/0 $1,150,000.00 1,654 Sq.Ft. 154 01/28/2014 View Details
4407 1/1/0 $545,000.00 984 Sq.Ft. 92 01/29/2014 View Details
902 2/2/0 $789,000.00 1,505 Sq.Ft. 141 01/30/2014 View Details
2511 2/2/0 $680,000.00 1,255 Sq.Ft. 117 01/31/2014 View Details
2609 1/1/0 $570,000.00 1,035 Sq.Ft. 97 02/08/2014 View Details
2203 2/2/0 $970,000.00 1,518 Sq.Ft. 142 02/10/2014 View Details
3101 3/2/0 $2,399,000.00 1,870 Sq.Ft. 174 02/13/2014 View Details
1111 2/2/0 $690,000.00 1,255 Sq.Ft. 117 02/19/2014 View Details
3009 1/1/0 $575,000.00 1,035 Sq.Ft. 97 02/20/2014 View Details
5207 1/1/0 $560,000.00 984 Sq.Ft. 92 02/20/2014 View Details
4201 3/2/0 $1,590,000.00 1,870 Sq.Ft. 174 03/07/2014 View Details
5206 1/1/0 $460,000.00 732 Sq.Ft. 69 03/09/2014 View Details
802 2/2/0 $830,000.00 1,505 Sq.Ft. 141 03/10/2014 View Details
807 1/1/0 $535,000.00 984 Sq.Ft. 92 03/10/2014 View Details
505 2/2/0 $870,000.00 1,450 Sq.Ft. 135 03/13/2014 View Details
5607 1/1/0 $625,000.00 984 Sq.Ft. 92 03/14/2014 View Details
3203 2/2/0 $945,000.00 1,518 Sq.Ft. 142 03/17/2014 View Details
4109 1/1/0 $605,000.00 1,035 Sq.Ft. 97 03/18/2014 View Details
3204 2/2/0 $849,000.00 1,500 Sq.Ft. 140 03/18/2014 View Details
3107 1/1/0 $550,000.00 984 Sq.Ft. 92 03/18/2014 View Details
5610 2/2/0 $1,100,000.00 1,327 Sq.Ft. 124 03/19/2014 View Details
1901 3/2/0 $1,295,000.00 1,870 Sq.Ft. 174 03/21/2014 View Details
4410 2/2/0 $750,000.00 1,327 Sq.Ft. 124 03/21/2014 View Details
2302 2/2/0 $895,000.00 1,654 Sq.Ft. 154 03/24/2014 View Details
1511 2/2/0 $735,000.00 1,255 Sq.Ft. 117 03/25/2014 View Details
1808 1/1/0 $400,000.00 732 Sq.Ft. 69 03/26/2014 View Details
3208 1/1/0 $430,000.00 732 Sq.Ft. 69 03/27/2014 View Details
4209 1/1/0 $594,900.00 1,035 Sq.Ft. 97 03/28/2014 View Details
3603 2/2/0 $955,000.00 1,518 Sq.Ft. 142 03/31/2014 View Details
4604 2/2/0 $865,000.00 1,500 Sq.Ft. 140 03/31/2014 View Details
2904 2/2/0 $1,250,000.00 1,500 Sq.Ft. 140 04/01/2014 View Details
3510 2/2/0 $724,000.00 1,327 Sq.Ft. 124 04/01/2014 View Details
4110 2/2/0 $1,195,000.00 1,327 Sq.Ft. 124 04/01/2014 View Details
5303 2/2/0 $1,150,000.00 1,518 Sq.Ft. 142 04/02/2014 View Details
2711 2/2/0 $725,000.00 1,255 Sq.Ft. 117 04/03/2014 View Details
5109 1/1/0 $615,000.00 1,035 Sq.Ft. 97 04/03/2014 View Details
2107 1/1/0 $540,000.00 984 Sq.Ft. 92 04/07/2014 View Details
2303 2/2/0 $970,000.00 1,518 Sq.Ft. 142 04/07/2014 View Details
1507 1/1/0 $565,000.00 984 Sq.Ft. 92 04/07/2014 View Details
4206 1/1/0 $399,000.00 732 Sq.Ft. 69 04/07/2014 View Details
1805 2/2/0 $825,000.00 1,450 Sq.Ft. 135 04/08/2014 View Details
3906 1/1/0 $418,900.00 732 Sq.Ft. 69 04/09/2014 View Details
2207 1/1/0 $545,000.00 984 Sq.Ft. 92 04/10/2014 View Details
4203 2/2/0 $1,050,000.00 1,518 Sq.Ft. 142 04/12/2014 View Details
2403 2/2/0 $950,000.00 1,518 Sq.Ft. 142 04/15/2014 View Details
3410 2/2/0 $695,000.00 1,327 Sq.Ft. 124 04/17/2014 View Details
Property on a Map
Search Attractions Around This Listing (Read reviews on Yelp)
© The data relating to real estate for sale/lease on this web site come in part from a cooperative data exchange program of the multiple listing service (MLS) in which this real estate firm (Broker) participates. The properties displayed may not be all of the properties in the MLS's database, or all of the properties listed with Brokers participating in the cooperative data exchange program. Properties listed by Brokers other than this Broker are marked with either the listing Broker's logo or name or the MLS name or a logo provided by the MLS. Detailed information about such properties includes the name of the listing Brokers. Information provided is thought to be reliable but is not guaranteed to be accurate; you are advised to verify facts that are important to you. No warranties, expressed or implied, are provided for the data herein, or for their use or interpretation by the user. The Florida Association of Realtors and its cooperating MLSs do not create, control or review the property data displayed herein and take no responsibility for the content of such records. Federal law prohibits discrimination on the basis of race, color, religion, sex, handicap, familial status or national origin in the sale, rental or financing of housing. Listing courtesy of :